Time;durP1;ratioP1;P1;durP2;ratioP2;P2;SDS_P1;SDS_P2;PMS_P1;PMS_P2;Temp;Humidity;BMP_temperature;BMP_pressure;BME280_temperature;BME280_humidity;BME280_pressure;Samples;Min_cycle;Max_cycle;Signal;HPM_P1;HPM_P2
2020/12/08 00:00:43;;;;;;;47.92;23.50;;;2.10;99.90;;;;;;5073869;28;20048;-37
2020/12/08 00:03:09;;;;;;;54.40;25.20;;;2.10;99.90;;;;;;5078906;28;20050;-39
2020/12/08 00:05:35;;;;;;;53.95;24.05;;;2.10;99.90;;;;;;5077959;28;20036;-37
2020/12/08 00:08:04;;;;;;;46.88;21.65;;;2.10;99.90;;;;;;5054608;28;20136;-38
2020/12/08 00:10:29;;;;;;;51.47;23.13;;;2.20;99.90;;;;;;5083991;28;20107;-46
2020/12/08 00:12:55;;;;;;;46.22;23.83;;;2.20;99.90;;;;;;5080441;28;20159;-39
2020/12/08 00:15:20;;;;;;;48.55;24.98;;;2.10;99.90;;;;;;5075935;28;20120;-39
2020/12/08 00:17:47;;;;;;;44.17;22.33;;;2.10;99.90;;;;;;5056175;28;20039;-38
2020/12/08 00:20:13;;;;;;;47.83;24.80;;;2.10;99.90;;;;;;5072681;28;20033;-45
2020/12/08 00:22:39;;;;;;;47.75;23.38;;;2.10;99.90;;;;;;5072922;28;20036;-38
2020/12/08 00:25:07;;;;;;;49.83;22.65;;;2.20;99.90;;;;;;5073481;28;20041;-38
2020/12/08 00:27:32;;;;;;;50.83;24.70;;;2.20;99.90;;;;;;5071799;28;20119;-38
2020/12/08 00:29:58;;;;;;;54.90;24.85;;;2.10;99.90;;;;;;5073681;28;20103;-40
2020/12/08 00:32:23;;;;;;;61.28;24.88;;;2.10;99.90;;;;;;5075059;28;20039;-38
2020/12/08 00:34:49;;;;;;;46.42;23.10;;;2.10;99.90;;;;;;5074910;28;20032;-38
2020/12/08 00:37:15;;;;;;;47.55;23.17;;;2.10;99.90;;;;;;5054800;28;20119;-39
2020/12/08 00:39:40;;;;;;;45.95;23.42;;;2.10;99.90;;;;;;5056956;28;20481;-42
2020/12/08 00:42:06;;;;;;;46.63;24.50;;;2.10;99.90;;;;;;5074907;28;20026;-39
2020/12/08 00:44:33;;;;;;;43.92;22.65;;;2.10;99.90;;;;;;5054667;28;20044;-39
2020/12/08 00:46:58;;;;;;;42.75;21.75;;;2.10;99.90;;;;;;5077577;28;20424;-39
2020/12/08 00:49:24;;;;;;;43.63;21.90;;;2.20;99.90;;;;;;5046527;28;20032;-39
2020/12/08 00:51:56;;;;;;;45.13;22.20;;;2.10;99.90;;;;;;5073355;28;20123;-39
2020/12/08 00:54:21;;;;;;;51.10;24.58;;;2.20;99.90;;;;;;5076411;28;20451;-38
2020/12/08 00:56:47;;;;;;;48.25;23.42;;;2.10;99.90;;;;;;5072668;28;20036;-38
2020/12/08 00:59:13;;;;;;;49.35;24.55;;;2.00;99.90;;;;;;5041212;28;20041;-39
2020/12/08 01:01:40;;;;;;;45.40;24.48;;;2.00;99.90;;;;;;5053237;28;20028;-38
2020/12/08 01:04:08;;;;;;;47.38;23.23;;;2.10;99.90;;;;;;5059578;28;20028;-39
2020/12/08 01:06:38;;;;;;;48.75;24.65;;;2.10;99.90;;;;;;5081062;28;20032;-38
2020/12/08 01:09:06;;;;;;;48.35;23.75;;;2.10;99.90;;;;;;5055748;28;20040;-38
2020/12/08 01:11:41;;;;;;;42.90;22.75;;;2.10;99.90;;;;;;5075982;28;20086;-37
2020/12/08 01:14:08;;;;;;;43.42;22.15;;;2.10;99.90;;;;;;5076072;28;20025;-39
2020/12/08 01:16:35;;;;;;;52.72;25.38;;;2.10;99.90;;;;;;5071362;28;20045;-38
2020/12/08 01:19:01;;;;;;;61.97;26.02;;;1.90;99.90;;;;;;5074031;28;20468;-38
2020/12/08 01:21:26;;;;;;;52.25;25.25;;;1.90;99.90;;;;;;5080938;28;20035;-38
2020/12/08 01:23:52;;;;;;;54.45;26.60;;;1.90;99.90;;;;;;5071428;28;20033;-39
2020/12/08 01:26:25;;;;;;;60.08;26.38;;;1.90;99.90;;;;;;5072924;28;20488;-38
2020/12/08 01:28:51;;;;;;;60.80;26.33;;;1.90;99.90;;;;;;5053928;28;20466;-38
2020/12/08 01:31:16;;;;;;;59.72;27.70;;;1.90;99.90;;;;;;5073335;28;20054;-43
2020/12/08 01:33:42;;;;;;;62.33;28.33;;;1.80;99.90;;;;;;5070796;28;20055;-42
2020/12/08 01:36:08;;;;;;;61.53;29.33;;;1.80;99.90;;;;;;5072343;28;20032;-39
2020/12/08 01:38:34;;;;;;;64.60;29.25;;;1.80;99.90;;;;;;5072895;28;20473;-39
2020/12/08 01:41:00;;;;;;;60.35;27.35;;;1.70;99.90;;;;;;5071831;28;20126;-39
2020/12/08 01:43:26;;;;;;;61.03;28.38;;;1.70;99.90;;;;;;5077051;28;20096;-40
2020/12/08 01:45:52;;;;;;;68.82;30.08;;;1.70;99.90;;;;;;5071671;28;20024;-39
2020/12/08 01:48:18;;;;;;;62.67;28.73;;;1.70;99.90;;;;;;5070837;28;20032;-39
2020/12/08 01:50:44;;;;;;;60.05;27.42;;;1.70;99.90;;;;;;5072523;28;20039;-40
2020/12/08 01:53:13;;;;;;;62.28;28.58;;;1.80;99.90;;;;;;5051362;28;20032;-39
2020/12/08 01:55:39;;;;;;;60.83;29.27;;;1.80;99.90;;;;;;5071783;28;20120;-38
2020/12/08 01:58:21;;;;;;;72.82;31.30;;;1.80;99.90;;;;;;5072269;28;20071;-39
2020/12/08 02:00:50;;;;;;;;;;;1.80;99.90;;;;;;5072658;28;20458;-39
2020/12/08 02:03:17;;;;;;;66.03;30.80;;;1.80;99.90;;;;;;5077221;28;19931;-43
2020/12/08 02:05:43;;;;;;;67.15;29.85;;;1.80;99.90;;;;;;5071139;28;20469;-38
2020/12/08 02:08:09;;;;;;;59.63;28.98;;;1.80;99.90;;;;;;5072300;28;20067;-39
2020/12/08 02:10:35;;;;;;;54.08;26.30;;;1.90;99.90;;;;;;5074587;28;20068;-41
2020/12/08 02:13:05;;;;;;;59.92;29.67;;;2.00;99.90;;;;;;5080277;28;20480;-39
2020/12/08 02:15:31;;;;;;;64.05;28.65;;;1.90;99.90;;;;;;5076457;28;20105;-38
2020/12/08 02:17:58;;;;;;;65.70;30.02;;;1.90;99.90;;;;;;5061009;28;20454;-39
2020/12/08 02:20:27;;;;;;;67.88;30.80;;;1.80;99.90;;;;;;5080247;28;20051;-39
2020/12/08 02:22:56;;;;;;;62.30;30.45;;;1.90;99.90;;;;;;5072258;28;20071;-39
2020/12/08 02:25:22;;;;;;;63.67;29.08;;;1.90;99.90;;;;;;5077604;28;20480;-39
2020/12/08 02:27:48;;;;;;;65.13;28.98;;;1.90;99.90;;;;;;5077912;28;20040;-39
2020/12/08 02:30:13;;;;;;;60.13;28.33;;;2.00;99.90;;;;;;5070962;28;20025;-39
2020/12/08 02:32:39;;;;;;;58.60;27.63;;;2.00;99.90;;;;;;5084136;28;20055;-40
2020/12/08 02:35:06;;;;;;;54.83;27.25;;;2.00;99.90;;;;;;5084144;28;20063;-38
2020/12/08 02:37:32;;;;;;;51.85;25.77;;;2.10;99.90;;;;;;5073940;28;20079;-38
2020/12/08 02:39:57;;;;;;;51.58;25.48;;;2.10;99.90;;;;;;5052373;28;20075;-39
2020/12/08 02:42:23;;;;;;;44.83;23.73;;;2.10;99.90;;;;;;5071430;28;20428;-39
2020/12/08 02:44:48;;;;;;;50.22;24.83;;;2.20;99.90;;;;;;5071984;28;20074;-38
2020/12/08 02:47:14;;;;;;;53.20;24.50;;;2.20;99.90;;;;;;5082171;28;20048;-38
2020/12/08 02:49:39;;;;;;;59.33;28.88;;;2.20;99.90;;;;;;5071485;28;20466;-38
2020/12/08 02:52:05;;;;;;;62.97;29.00;;;2.10;99.90;;;;;;5085382;28;20032;-40
2020/12/08 02:54:31;;;;;;;56.50;27.40;;;2.10;99.90;;;;;;5071381;28;20087;-38
2020/12/08 02:57:01;;;;;;;53.60;27.90;;;2.10;99.90;;;;;;5060870;28;20028;-39
2020/12/08 02:59:26;;;;;;;59.63;29.23;;;2.10;99.90;;;;;;5072605;28;20059;-38
2020/12/08 03:01:55;;;;;;;57.40;27.50;;;2.20;99.90;;;;;;5070822;28;20056;-38
2020/12/08 03:04:21;;;;;;;61.33;30.38;;;2.10;99.90;;;;;;5071479;28;20111;-38
2020/12/08 03:06:47;;;;;;;60.97;29.30;;;2.20;99.90;;;;;;5050659;28;20062;-38
2020/12/08 03:09:12;;;;;;;62.75;28.48;;;2.10;99.90;;;;;;5071681;28;20028;-39
2020/12/08 03:11:38;;;;;;;59.55;27.75;;;2.10;99.90;;;;;;5078588;28;20024;-39
2020/12/08 03:14:04;;;;;;;63.28;30.92;;;2.10;99.90;;;;;;5074375;28;20035;-38
2020/12/08 03:16:29;;;;;;;65.63;30.30;;;2.10;99.90;;;;;;5079389;28;20040;-39
2020/12/08 03:18:55;;;;;;;63.55;29.48;;;2.10;99.90;;;;;;5073784;28;20024;-38
2020/12/08 03:21:20;;;;;;;61.13;28.92;;;2.10;99.90;;;;;;5080696;28;20127;-38
2020/12/08 03:23:46;;;;;;;63.20;30.98;;;2.10;99.90;;;;;;5075451;28;20040;-39
2020/12/08 03:26:22;;;;;;;66.80;31.35;;;2.10;99.90;;;;;;5073387;28;20380;-38
2020/12/08 03:28:48;;;;;;;71.05;32.13;;;2.10;99.90;;;;;;5055842;28;20029;-39
2020/12/08 03:31:14;;;;;;;71.32;34.00;;;2.00;99.90;;;;;;5074224;28;20469;-38
2020/12/08 03:33:41;;;;;;;77.13;33.25;;;2.00;99.90;;;;;;5074408;28;20027;-38
2020/12/08 03:36:13;;;;;;;69.38;32.70;;;2.10;99.90;;;;;;5073314;28;20509;-39
2020/12/08 03:38:41;;;;;;;65.32;29.40;;;2.10;99.90;;;;;;5074768;28;20384;-38
2020/12/08 03:41:07;;;;;;;61.40;29.77;;;2.10;99.90;;;;;;5073563;28;20077;-38
2020/12/08 03:43:33;;;;;;;66.38;30.63;;;2.10;99.90;;;;;;5073367;28;20024;-38
2020/12/08 03:45:59;;;;;;;68.78;31.90;;;2.10;99.90;;;;;;5073080;28;20085;-38
2020/12/08 03:48:25;;;;;;;75.28;32.35;;;2.10;99.90;;;;;;5056336;28;20060;-38
2020/12/08 03:50:51;;;;;;;84.80;36.03;;;2.10;99.90;;;;;;5060698;28;20059;-39
2020/12/08 03:53:17;;;;;;;77.80;34.28;;;2.10;99.90;;;;;;5074228;28;20048;-38
2020/12/08 03:55:42;;;;;;;64.75;32.03;;;2.10;99.90;;;;;;5079119;28;20024;-39
2020/12/08 03:58:08;;;;;;;74.40;33.35;;;2.20;99.90;;;;;;5089667;28;20067;-38
2020/12/08 04:00:33;;;;;;;72.88;31.67;;;2.10;99.90;;;;;;5073293;28;20416;-38
2020/12/08 04:02:59;;;;;;;81.32;38.03;;;2.10;99.90;;;;;;5089317;28;20373;-39
2020/12/08 04:05:24;;;;;;;74.95;32.90;;;2.10;99.90;;;;;;5073180;28;20039;-40
2020/12/08 04:07:50;;;;;;;81.93;32.92;;;2.10;99.90;;;;;;5056098;28;20050;-38
2020/12/08 04:10:16;;;;;;;89.07;34.92;;;2.20;99.90;;;;;;5072367;28;20595;-38
2020/12/08 04:12:41;;;;;;;78.05;32.33;;;2.10;99.90;;;;;;5072075;28;20024;-38
2020/12/08 04:15:07;;;;;;;87.43;36.13;;;2.20;99.90;;;;;;5072871;28;20103;-38
2020/12/08 04:17:32;;;;;;;69.57;33.22;;;2.20;99.90;;;;;;5074378;28;20048;-39
2020/12/08 04:19:58;;;;;;;79.65;33.50;;;2.20;99.90;;;;;;5072419;28;20465;-38
2020/12/08 04:22:23;;;;;;;94.82;36.15;;;2.30;99.90;;;;;;5072596;28;20485;-38
2020/12/08 04:24:49;;;;;;;90.70;37.28;;;2.30;99.90;;;;;;5080480;28;20047;-37
2020/12/08 04:27:14;;;;;;;88.43;36.03;;;2.30;99.90;;;;;;5074934;28;20048;-40
2020/12/08 04:29:40;;;;;;;87.03;38.22;;;2.30;99.90;;;;;;5073493;28;20077;-42
2020/12/08 04:32:06;;;;;;;87.93;36.45;;;2.40;99.90;;;;;;5072153;28;20491;-39
2020/12/08 04:34:32;;;;;;;88.63;35.58;;;2.40;99.90;;;;;;5081150;28;20203;-43
2020/12/08 04:37:01;;;;;;;89.38;35.53;;;2.40;99.90;;;;;;5072561;28;20029;-48
2020/12/08 04:39:27;;;;;;;93.38;36.88;;;2.30;99.90;;;;;;5073509;28;20513;-45
2020/12/08 04:41:56;;;;;;;97.18;38.53;;;2.40;99.90;;;;;;5078545;28;20112;-46
2020/12/08 04:44:22;;;;;;;101.68;39.72;;;2.40;99.90;;;;;;5072590;28;20040;-45
2020/12/08 04:46:54;;;;;;;103.13;39.80;;;2.40;99.90;;;;;;5057715;28;20044;-48
2020/12/08 04:49:24;;;;;;;103.70;38.78;;;2.40;99.90;;;;;;5072224;28;20039;-45
2020/12/08 04:51:50;;;;;;;96.40;41.25;;;2.50;99.90;;;;;;5075468;28;20028;-45
2020/12/08 04:54:16;;;;;;;92.57;37.65;;;2.50;99.90;;;;;;5071336;28;20491;-47
2020/12/08 04:56:48;;;;;;;104.13;40.75;;;2.50;99.90;;;;;;5071890;28;20582;-46
2020/12/08 04:59:23;;;;;;;93.45;38.88;;;2.50;99.90;;;;;;5072974;28;20020;-42
2020/12/08 05:01:50;;;;;;;95.38;39.63;;;2.50;99.90;;;;;;5076607;28;20043;-40
2020/12/08 05:04:23;;;;;;;87.97;37.65;;;2.50;99.90;;;;;;5071167;28;20032;-44
2020/12/08 05:07:01;;;;;;;81.47;36.33;;;2.50;99.90;;;;;;5072299;28;20089;-46
2020/12/08 05:09:26;;;;;;;79.43;33.83;;;2.50;99.90;;;;;;5077174;28;20027;-45
2020/12/08 05:11:56;;;;;;;79.45;32.78;;;2.60;99.90;;;;;;5072207;28;20404;-40
2020/12/08 05:14:21;;;;;;;72.40;32.63;;;2.50;99.90;;;;;;5071961;28;20027;-40
2020/12/08 05:16:47;;;;;;;65.95;29.08;;;2.60;99.90;;;;;;5072450;28;20040;-44
2020/12/08 05:19:12;;;;;;;69.65;33.72;;;2.60;99.90;;;;;;5071744;28;20067;-43
2020/12/08 05:21:48;;;;;;;73.82;33.33;;;2.60;99.90;;;;;;5072435;28;20059;-40
2020/12/08 05:24:25;;;;;;;71.10;30.92;;;2.50;99.90;;;;;;5083950;28;20039;-43
2020/12/08 05:27:01;;;;;;;68.45;30.50;;;2.60;99.90;;;;;;5075720;28;20032;-43
2020/12/08 05:29:28;;;;;;;59.42;28.25;;;2.60;99.90;;;;;;5072330;28;20086;-42
2020/12/08 05:31:54;;;;;;;55.97;29.05;;;2.60;99.90;;;;;;5053586;28;20048;-43
2020/12/08 05:34:22;;;;;;;63.17;29.20;;;2.70;99.90;;;;;;5079864;28;20377;-42
2020/12/08 05:36:52;;;;;;;66.18;28.52;;;2.70;99.90;;;;;;5074349;28;20021;-42
2020/12/08 05:39:22;;;;;;;65.60;22.93;;;2.70;99.90;;;;;;5072229;28;20058;-41
2020/12/08 05:41:49;;;;;;;68.43;29.20;;;2.70;99.90;;;;;;5072013;28;20024;-39
2020/12/08 05:44:24;;;;;;;54.40;27.25;;;2.60;99.90;;;;;;5067437;28;20119;-42
2020/12/08 05:46:51;;;;;;;65.28;29.23;;;2.60;99.90;;;;;;5063395;28;20036;-37
2020/12/08 05:49:18;;;;;;;63.38;29.20;;;2.60;99.90;;;;;;5072748;28;20367;-43
2020/12/08 05:51:46;;;;;;;75.05;33.47;;;2.50;99.90;;;;;;5071554;28;20373;-43
2020/12/08 05:54:18;;;;;;;75.53;33.90;;;2.50;99.90;;;;;;5071575;28;20067;-41
2020/12/08 05:56:44;;;;;;;80.53;33.78;;;2.40;99.90;;;;;;5070584;28;20027;-42
2020/12/08 05:59:10;;;;;;;83.80;34.67;;;2.40;99.90;;;;;;5076818;28;20032;-39
2020/12/08 06:01:49;;;;;;;88.88;36.63;;;2.40;99.90;;;;;;5073303;28;20040;-38
2020/12/08 06:04:14;;;;;;;99.15;36.15;;;2.40;99.90;;;;;;5053734;28;20032;-39
2020/12/08 06:06:50;;;;;;;86.60;36.90;;;2.40;99.90;;;;;;5070967;28;20489;-39
2020/12/08 06:09:27;;;;;;;89.47;37.75;;;2.40;99.90;;;;;;5063264;28;20035;-38
2020/12/08 06:11:53;;;;;;;88.90;39.60;;;2.40;99.90;;;;;;5066839;28;20090;-42
2020/12/08 06:14:35;;;;;;;96.18;42.95;;;2.50;99.90;;;;;;5070818;28;20458;-43
2020/12/08 06:17:07;;;;;;;93.82;37.53;;;2.60;99.90;;;;;;5074132;28;20055;-38
2020/12/08 06:19:36;;;;;;;88.97;39.50;;;2.60;99.90;;;;;;5069993;28;20059;-43
2020/12/08 06:22:12;;;;;;;84.95;37.10;;;2.60;99.90;;;;;;5071107;28;20035;-40
2020/12/08 06:24:54;;;;;;;83.90;36.65;;;2.60;99.90;;;;;;5070243;28;20474;-40
2020/12/08 06:27:22;;;;;;;94.05;40.13;;;2.60;99.90;;;;;;5064765;28;20470;-39
2020/12/08 06:29:55;;;;;;;89.28;37.65;;;2.60;99.90;;;;;;5069448;28;20040;-46
2020/12/08 06:32:31;;;;;;;79.60;37.97;;;2.60;99.90;;;;;;5071103;28;20108;-42
2020/12/08 06:35:22;;;;;;;90.32;40.92;;;2.60;99.90;;;;;;5074320;28;20036;-45
2020/12/08 06:37:53;;;;;;;91.28;41.22;;;2.60;99.90;;;;;;5073229;28;20037;-42
2020/12/08 06:40:23;;;;;;;94.65;43.45;;;2.60;99.90;;;;;;5080399;28;20039;-41
2020/12/08 06:42:50;;;;;;;95.25;42.58;;;2.60;99.90;;;;;;5046433;28;20072;-45
2020/12/08 06:45:26;;;;;;;97.82;42.63;;;2.70;99.90;;;;;;5071972;28;20035;-46
2020/12/08 06:47:52;;;;;;;93.97;42.83;;;2.70;99.90;;;;;;5076169;28;20090;-39
2020/12/08 06:50:25;;;;;;;87.55;39.92;;;2.70;99.90;;;;;;5081752;28;20028;-39
2020/12/08 06:52:53;;;;;;;81.65;40.20;;;2.70;99.90;;;;;;5075405;28;20078;-39
2020/12/08 06:55:18;;;;;;;77.07;38.88;;;2.70;99.90;;;;;;5057400;28;20041;-42
2020/12/08 06:57:44;;;;;;;76.53;38.80;;;2.60;99.90;;;;;;5069155;28;20333;-42
2020/12/08 07:00:11;;;;;;;70.18;37.50;;;2.60;99.90;;;;;;5070021;28;20483;-39
2020/12/08 07:02:55;;;;;;;73.57;37.80;;;2.70;99.90;;;;;;5068076;28;20028;-42
2020/12/08 07:05:31;;;;;;;70.85;36.92;;;2.60;99.90;;;;;;5067320;28;20033;-41
2020/12/08 07:08:02;;;;;;;75.07;39.03;;;2.60;99.90;;;;;;5072532;28;20040;-46
2020/12/08 07:10:28;;;;;;;67.32;34.20;;;2.60;99.90;;;;;;5069535;28;20488;-42
2020/12/08 07:12:54;;;;;;;70.55;35.92;;;2.60;99.90;;;;;;5070967;28;20053;-40
2020/12/08 07:15:25;;;;;;;73.88;38.65;;;2.50;99.90;;;;;;5055989;28;20095;-47
2020/12/08 07:18:04;;;;;;;80.53;39.53;;;2.50;99.90;;;;;;5064750;28;20056;-39
2020/12/08 07:20:31;;;;;;;78.75;39.33;;;2.50;99.90;;;;;;5061079;28;20036;-38
2020/12/08 07:23:04;;;;;;;73.50;37.50;;;2.50;99.90;;;;;;5056260;28;20127;-46
2020/12/08 07:25:30;;;;;;;62.17;34.78;;;2.50;99.90;;;;;;5074915;28;20124;-39
2020/12/08 07:27:56;;;;;;;63.13;34.33;;;2.50;99.90;;;;;;5075171;28;20036;-43
2020/12/08 07:30:24;;;;;;;67.50;35.30;;;2.50;99.90;;;;;;5074905;28;20024;-39
2020/12/08 07:32:54;;;;;;;72.38;36.65;;;2.40;99.90;;;;;;5073355;28;20535;-40
2020/12/08 07:35:30;;;;;;;70.53;36.53;;;2.40;99.90;;;;;;5062771;28;20036;-39
2020/12/08 07:37:59;;;;;;;58.85;33.03;;;2.40;99.90;;;;;;5055861;28;20036;-39
2020/12/08 07:40:32;;;;;;;68.57;34.92;;;2.50;99.90;;;;;;5056336;28;20040;-40
2020/12/08 07:42:58;;;;;;;71.38;37.65;;;2.40;99.90;;;;;;5056503;28;20037;-40
2020/12/08 07:45:23;;;;;;;83.18;41.25;;;2.30;99.90;;;;;;5074393;28;20037;-38
2020/12/08 07:48:00;;;;;;;71.93;37.40;;;2.30;99.90;;;;;;5073547;28;20465;-40
2020/12/08 07:50:31;;;;;;;68.65;36.28;;;2.30;99.90;;;;;;5069754;28;20087;-42
2020/12/08 07:52:59;;;;;;;54.27;27.50;;;2.30;99.90;;;;;;5071768;28;20021;-40
2020/12/08 07:55:25;;;;;;;59.83;33.65;;;2.40;99.90;;;;;;5071685;28;20025;-39
2020/12/08 07:57:52;;;;;;;62.08;31.67;;;2.40;99.90;;;;;;5072144;28;20027;-39
2020/12/08 08:00:18;;;;;;;51.72;29.48;;;2.40;99.90;;;;;;5071139;28;20028;-41
2020/12/08 08:02:43;;;;;;;53.42;28.88;;;2.50;99.90;;;;;;5070647;28;20099;-41
2020/12/08 08:05:09;;;;;;;51.00;27.10;;;2.50;99.90;;;;;;5052990;28;20127;-38
2020/12/08 08:07:34;;;;;;;56.90;29.27;;;2.40;99.90;;;;;;5073061;28;20028;-39
2020/12/08 08:10:00;;;;;;;50.92;28.67;;;2.50;99.90;;;;;;5072231;28;20036;-38
2020/12/08 08:12:26;;;;;;;62.83;31.05;;;2.40;99.90;;;;;;5072787;28;20124;-42
2020/12/08 08:14:51;;;;;;;58.08;30.50;;;2.30;99.90;;;;;;5072239;28;20032;-39
2020/12/08 08:17:17;;;;;;;63.05;33.55;;;2.30;99.90;;;;;;5072116;28;20119;-38
2020/12/08 08:19:43;;;;;;;59.30;34.03;;;2.30;99.90;;;;;;5053799;28;20430;-39
2020/12/08 08:22:08;;;;;;;74.07;37.17;;;2.30;99.90;;;;;;5072683;28;20023;-39
2020/12/08 08:24:34;;;;;;;71.45;35.97;;;2.30;99.90;;;;;;5072571;28;20079;-38
2020/12/08 08:26:59;;;;;;;68.88;34.00;;;2.30;99.90;;;;;;5053523;28;20036;-43
2020/12/08 08:29:25;;;;;;;62.20;34.25;;;2.30;99.90;;;;;;5071863;28;20106;-42
2020/12/08 08:31:50;;;;;;;68.78;35.47;;;2.30;99.90;;;;;;5072557;28;20515;-40
2020/12/08 08:34:16;;;;;;;69.00;35.72;;;2.30;99.90;;;;;;5072747;28;20028;-39
2020/12/08 08:36:52;;;;;;;67.13;35.45;;;2.40;99.90;;;;;;5072583;28;20035;-39
2020/12/08 08:39:18;;;;;;;62.20;32.08;;;2.40;99.90;;;;;;5072768;28;20082;-39
2020/12/08 08:41:44;;;;;;;54.85;30.50;;;2.40;99.90;;;;;;5072859;28;20028;-39
2020/12/08 08:44:10;;;;;;;50.97;29.70;;;2.50;99.90;;;;;;5070968;28;20039;-38
2020/12/08 08:46:39;;;;;;;48.25;28.83;;;2.50;99.90;;;;;;5072178;28;20025;-44
2020/12/08 08:49:04;;;;;;;55.13;28.48;;;2.50;99.90;;;;;;5071652;28;20489;-42
2020/12/08 08:51:30;;;;;;;56.92;29.52;;;2.50;99.90;;;;;;5053943;28;20082;-39
2020/12/08 08:53:56;;;;;;;52.97;29.08;;;2.50;99.90;;;;;;5072122;28;20036;-39
2020/12/08 08:56:21;;;;;;;68.88;34.88;;;2.50;99.90;;;;;;5051162;28;20795;-39
2020/12/08 08:58:47;;;;;;;59.03;31.80;;;2.50;99.90;;;;;;5073341;28;20107;-40
2020/12/08 09:01:12;;;;;;;57.95;31.25;;;2.50;99.90;;;;;;5060801;28;20377;-40
2020/12/08 09:03:39;;;;;;;54.65;29.00;;;2.50;99.90;;;;;;5073353;28;20028;-39
2020/12/08 09:06:05;;;;;;;54.78;29.65;;;2.50;99.90;;;;;;5073514;28;20481;-39
2020/12/08 09:08:30;;;;;;;57.25;30.38;;;2.50;99.90;;;;;;5072459;28;20108;-40
2020/12/08 09:10:56;;;;;;;50.10;27.90;;;2.60;99.90;;;;;;5073708;28;20103;-44
2020/12/08 09:13:22;;;;;;;56.05;28.80;;;2.60;99.90;;;;;;5072912;28;20085;-39
2020/12/08 09:15:47;;;;;;;54.28;29.42;;;2.70;99.90;;;;;;5073556;28;20051;-40
2020/12/08 09:18:13;;;;;;;54.17;28.65;;;2.70;99.90;;;;;;5057537;28;20032;-40
2020/12/08 09:20:39;;;;;;;48.45;27.55;;;2.70;99.90;;;;;;5055296;28;20516;-46
2020/12/08 09:23:05;;;;;;;54.05;28.70;;;2.70;99.90;;;;;;5044689;28;20638;-42
2020/12/08 09:25:30;;;;;;;60.90;32.63;;;2.70;99.90;;;;;;5071532;28;20025;-39
2020/12/08 09:27:56;;;;;;;67.32;34.50;;;2.80;99.90;;;;;;5069666;28;20039;-39
2020/12/08 09:30:22;;;;;;;72.88;37.17;;;2.70;99.90;;;;;;5070782;28;20032;-40
2020/12/08 09:32:49;;;;;;;71.35;35.55;;;2.80;99.90;;;;;;5053362;28;20504;-39
2020/12/08 09:35:16;;;;;;;81.75;38.78;;;2.80;99.90;;;;;;5071444;28;20040;-44
2020/12/08 09:37:43;;;;;;;61.42;34.35;;;2.80;99.90;;;;;;5069518;28;20024;-39
2020/12/08 09:40:09;;;;;;;71.57;38.20;;;2.90;99.90;;;;;;5066625;28;20393;-38
2020/12/08 09:42:38;;;;;;;79.05;40.10;;;2.90;99.90;;;;;;5071326;28;20028;-38
2020/12/08 09:45:05;;;;;;;78.75;42.60;;;2.90;99.90;;;;;;5040395;28;20043;-38
2020/12/08 09:47:31;;;;;;;81.30;39.70;;;2.80;99.90;;;;;;5072661;28;20039;-38
2020/12/08 09:49:56;;;;;;;68.68;36.95;;;2.90;99.90;;;;;;5059532;28;20024;-39
2020/12/08 09:52:22;;;;;;;73.15;38.10;;;3.00;99.90;;;;;;5051219;28;20033;-40
2020/12/08 09:54:47;;;;;;;73.75;37.08;;;3.00;99.90;;;;;;5072427;28;20245;-38
2020/12/08 09:57:13;;;;;;;78.30;36.03;;;3.00;99.90;;;;;;5068803;28;20355;-45
2020/12/08 09:59:39;;;;;;;65.47;35.80;;;3.00;99.90;;;;;;5050951;28;20036;-38
2020/12/08 10:02:04;;;;;;;57.33;32.15;;;3.10;99.90;;;;;;5051126;28;20559;-37
2020/12/08 10:04:33;;;;;;;56.53;29.92;;;3.10;99.90;;;;;;5054345;28;20021;-38
2020/12/08 10:06:59;;;;;;;49.88;28.08;;;3.20;99.90;;;;;;5070282;28;20033;-39
2020/12/08 10:09:24;;;;;;;49.72;28.02;;;3.30;99.90;;;;;;5068718;28;20032;-39
2020/12/08 10:11:50;;;;;;;58.05;30.08;;;3.20;99.90;;;;;;5069758;28;20020;-39
2020/12/08 10:14:16;;;;;;;59.65;32.38;;;3.20;99.90;;;;;;5065862;28;20040;-38
2020/12/08 10:16:41;;;;;;;63.65;33.03;;;3.20;99.90;;;;;;5070905;28;20157;-38
2020/12/08 10:19:07;;;;;;;67.90;34.70;;;3.30;99.90;;;;;;5072259;28;20546;-38
2020/12/08 10:21:32;;;;;;;56.45;31.13;;;3.30;99.90;;;;;;5038142;28;20029;-37
2020/12/08 10:23:58;;;;;;;53.25;29.85;;;3.40;99.90;;;;;;5059923;28;20044;-38
2020/12/08 10:26:23;;;;;;;51.22;29.10;;;3.40;99.90;;;;;;5068676;28;20075;-41
2020/12/08 10:28:50;;;;;;;54.53;30.95;;;3.50;99.90;;;;;;5071914;28;20037;-40
2020/12/08 10:31:17;;;;;;;55.17;30.63;;;3.40;99.90;;;;;;5077135;28;20035;-38
2020/12/08 10:33:43;;;;;;;56.13;31.55;;;3.40;99.90;;;;;;5072104;28;20521;-42
2020/12/08 10:36:08;;;;;;;56.08;32.88;;;3.50;99.90;;;;;;5072722;28;20111;-47
2020/12/08 10:38:34;;;;;;;62.45;34.13;;;3.40;99.90;;;;;;5076151;28;20028;-39
2020/12/08 10:40:59;;;;;;;60.95;32.60;;;3.50;99.90;;;;;;5056649;28;20040;-39
2020/12/08 10:43:31;;;;;;;60.28;31.92;;;3.60;99.90;;;;;;5071303;28;20036;-39
2020/12/08 10:45:57;;;;;;;;;;;3.60;99.90;;;;;;5074983;28;20089;-39
2020/12/08 10:48:23;;;;;;;60.42;33.72;;;3.60;99.90;;;;;;5074653;28;19916;-37
2020/12/08 10:50:48;;;;;;;62.17;33.65;;;3.60;99.90;;;;;;5074406;28;20035;-38
2020/12/08 10:53:14;;;;;;;61.63;33.35;;;3.60;99.90;;;;;;5074345;28;20056;-39
2020/12/08 10:55:40;;;;;;;53.92;31.25;;;3.70;99.90;;;;;;5072737;28;20028;-37
2020/12/08 10:58:06;;;;;;;53.28;30.90;;;3.70;99.90;;;;;;5075767;28;20051;-41
2020/12/08 11:00:33;;;;;;;60.55;32.92;;;3.80;99.90;;;;;;5070603;28;20116;-42
2020/12/08 11:03:02;;;;;;;52.90;30.55;;;3.70;99.90;;;;;;5071783;28;20031;-39
2020/12/08 11:05:27;;;;;;;57.25;31.67;;;3.80;99.90;;;;;;5074156;28;20119;-38
2020/12/08 11:07:53;;;;;;;53.42;29.40;;;3.80;99.90;;;;;;5071358;28;20119;-42
2020/12/08 11:10:18;;;;;;;55.97;30.17;;;3.80;99.90;;;;;;5076388;28;20071;-38
2020/12/08 11:12:44;;;;;;;47.88;28.35;;;3.80;99.90;;;;;;5073676;28;20048;-41
2020/12/08 11:15:10;;;;;;;47.55;26.85;;;3.80;99.90;;;;;;5074149;28;20063;-36
2020/12/08 11:17:36;;;;;;;43.45;24.77;;;3.80;99.90;;;;;;5072980;28;20082;-38
2020/12/08 11:20:05;;;;;;;51.28;26.35;;;3.70;99.90;;;;;;5070594;28;20024;-40
2020/12/08 11:22:31;;;;;;;55.47;29.10;;;3.80;99.90;;;;;;5072322;28;20024;-39
2020/12/08 11:24:58;;;;;;;52.00;27.90;;;3.80;99.90;;;;;;5075100;28;20404;-38
2020/12/08 11:27:23;;;;;;;48.88;27.33;;;3.80;99.90;;;;;;5054962;28;20098;-39
2020/12/08 11:29:49;;;;;;;48.33;27.48;;;3.80;99.90;;;;;;5073337;28;20024;-43
2020/12/08 11:32:15;;;;;;;50.85;26.00;;;3.80;99.90;;;;;;5070560;28;20035;-39
2020/12/08 11:34:41;;;;;;;46.33;26.10;;;3.80;99.90;;;;;;5055827;28;20062;-43
2020/12/08 11:37:07;;;;;;;51.30;28.17;;;3.90;99.90;;;;;;5071191;28;20020;-38
2020/12/08 11:39:33;;;;;;;43.85;25.67;;;3.80;99.90;;;;;;5073684;28;20100;-38
2020/12/08 11:41:59;;;;;;;43.95;26.02;;;4.00;99.90;;;;;;5073592;28;20033;-38
2020/12/08 11:44:24;;;;;;;45.42;25.13;;;4.00;99.90;;;;;;5070652;28;20033;-40
2020/12/08 11:46:53;;;;;;;48.03;26.27;;;4.00;99.90;;;;;;5068353;28;20040;-39
2020/12/08 11:49:19;;;;;;;44.97;26.25;;;3.90;99.90;;;;;;5073291;28;20065;-40
2020/12/08 11:51:46;;;;;;;41.03;25.05;;;4.00;99.90;;;;;;5080306;28;20052;-39
2020/12/08 11:54:12;;;;;;;49.00;25.10;;;4.00;99.90;;;;;;5069957;28;20440;-41
2020/12/08 11:56:38;;;;;;;45.13;24.55;;;4.00;99.90;;;;;;5055875;28;20058;-38
2020/12/08 11:59:04;;;;;;;46.33;24.05;;;4.10;99.90;;;;;;5070725;28;20385;-40
2020/12/08 12:01:30;;;;;;;38.22;22.50;;;4.10;99.90;;;;;;5073587;28;20107;-39
2020/12/08 12:03:56;;;;;;;42.90;23.75;;;4.20;99.90;;;;;;5054682;28;20033;-45
2020/12/08 12:06:22;;;;;;;46.60;26.33;;;4.20;99.90;;;;;;5066744;28;20032;-39
2020/12/08 12:08:47;;;;;;;48.78;26.88;;;4.10;99.90;;;;;;5053708;28;20036;-41
2020/12/08 12:11:13;;;;;;;50.42;27.25;;;4.20;99.90;;;;;;5073414;28;20047;-39
2020/12/08 12:13:39;;;;;;;47.55;27.20;;;4.10;99.90;;;;;;5072205;28;20029;-38
2020/12/08 12:16:04;;;;;;;48.83;29.50;;;4.20;99.90;;;;;;5083490;28;20054;-38
2020/12/08 12:18:30;;;;;;;60.45;30.38;;;4.10;99.90;;;;;;5075100;28;20527;-37
2020/12/08 12:20:55;;;;;;;52.45;27.80;;;4.10;99.90;;;;;;5048574;28;20031;-39
2020/12/08 12:23:21;;;;;;;53.05;29.38;;;4.10;99.90;;;;;;5073127;28;20508;-39
2020/12/08 12:25:46;;;;;;;52.08;30.15;;;4.10;99.90;;;;;;5069614;28;20519;-37
2020/12/08 12:28:12;;;;;;;49.17;28.33;;;4.10;99.90;;;;;;5073348;28;20024;-37
2020/12/08 12:30:38;;;;;;;48.00;28.92;;;4.20;99.90;;;;;;5072972;28;20485;-39
2020/12/08 12:33:03;;;;;;;52.10;28.05;;;4.20;99.90;;;;;;5074094;28;20037;-37
2020/12/08 12:35:29;;;;;;;53.20;28.77;;;4.20;99.90;;;;;;5073985;28;20067;-45
2020/12/08 12:37:55;;;;;;;53.05;28.65;;;4.10;99.90;;;;;;5077484;28;20043;-38